createdAt,value
2018-04-17T00:02:04.796Z,10.30
2018-04-17T00:04:33.084Z,10.20
2018-04-17T00:07:02.925Z,10.20
2018-04-17T00:09:31.994Z,10.20
2018-04-17T00:12:00.321Z,10.20
2018-04-17T00:14:29.416Z,10.10
2018-04-17T00:16:57.810Z,10.10
2018-04-17T00:19:26.130Z,10.20
2018-04-17T00:21:54.424Z,10.30
2018-04-17T00:24:22.759Z,10.10
2018-04-17T00:26:51.175Z,10.20
2018-04-17T00:29:19.557Z,10.30
2018-04-17T00:31:47.900Z,10.30
2018-04-17T00:34:16.225Z,10.30
2018-04-17T00:36:44.521Z,10.40
2018-04-17T00:39:12.853Z,10.50
2018-04-17T00:41:41.187Z,10.30
2018-04-17T00:44:09.480Z,9.90
2018-04-17T00:46:37.891Z,9.80
2018-04-17T00:49:06.180Z,9.80
2018-04-17T00:51:34.564Z,9.70
2018-04-17T00:54:05.309Z,9.60
2018-04-17T00:56:33.629Z,9.60
2018-04-17T00:59:02.704Z,9.90
2018-04-17T01:01:31.037Z,9.90
2018-04-17T01:03:59.338Z,9.80
2018-04-17T01:06:27.657Z,9.60
2018-04-17T01:08:56.078Z,9.60
2018-04-17T01:11:24.461Z,9.50
2018-04-17T01:13:52.762Z,9.50
2018-04-17T01:16:21.055Z,9.50
2018-04-17T01:18:49.372Z,9.50
2018-04-17T01:21:17.697Z,9.40
2018-04-17T01:23:45.984Z,9.50
2018-04-17T01:26:14.270Z,9.80
2018-04-17T01:28:42.593Z,9.70
2018-04-17T01:31:10.934Z,9.60
2018-04-17T01:33:39.470Z,9.70
2018-04-17T01:36:07.766Z,9.70
2018-04-17T01:38:36.052Z,9.40
2018-04-17T01:41:04.381Z,9.30
2018-04-17T01:43:32.673Z,9.40
2018-04-17T01:46:01.036Z,9.60
2018-04-17T01:48:29.341Z,9.60
2018-04-17T01:50:58.433Z,9.30
2018-04-17T01:53:26.713Z,9.30
2018-04-17T01:55:55.041Z,9.10
2018-04-17T01:58:23.351Z,9.00
2018-04-17T02:00:51.776Z,9.10
2018-04-17T02:03:20.185Z,9.20
2018-04-17T02:05:48.486Z,9.20
2018-04-17T02:08:17.769Z,9.10
2018-04-17T02:10:46.060Z,9.00
2018-04-17T02:13:14.348Z,8.90
2018-04-17T02:15:42.677Z,8.80
2018-04-17T02:18:10.967Z,9.00
2018-04-17T02:20:39.285Z,9.20
2018-04-17T02:23:07.586Z,9.20
2018-04-17T02:25:35.910Z,9.00
2018-04-17T02:28:04.290Z,8.80
2018-04-17T02:30:32.604Z,8.60
2018-04-17T02:33:01.657Z,8.50
2018-04-17T02:35:29.994Z,8.50
2018-04-17T02:37:58.274Z,8.50
2018-04-17T02:40:26.603Z,8.50
2018-04-17T02:42:54.958Z,8.50
2018-04-17T02:45:23.334Z,8.50
2018-04-17T02:47:51.690Z,8.40
2018-04-17T02:50:20.116Z,8.40
2018-04-17T02:52:48.407Z,8.40
2018-04-17T02:55:16.737Z,8.30
2018-04-17T02:57:45.070Z,8.30
2018-04-17T03:00:13.412Z,8.30
2018-04-17T03:02:41.769Z,8.30
2018-04-17T03:05:10.157Z,8.20
2018-04-17T03:07:38.500Z,8.20
2018-04-17T03:10:06.792Z,8.20
2018-04-17T03:12:35.109Z,8.20
2018-04-17T03:15:03.436Z,8.20
2018-04-17T03:17:31.738Z,8.20
2018-04-17T03:20:00.792Z,8.40
2018-04-17T03:22:29.280Z,8.40
2018-04-17T03:24:57.566Z,8.30
2018-04-17T03:27:25.892Z,8.20
2018-04-17T03:29:54.967Z,8.20
2018-04-17T03:32:23.261Z,8.20
2018-04-17T03:34:51.684Z,8.20
2018-04-17T03:37:20.003Z,8.10
2018-04-17T03:39:48.358Z,8.10
2018-04-17T03:42:16.676Z,8.10
2018-04-17T03:44:45.865Z,8.00
2018-04-17T03:47:14.253Z,8.00
2018-04-17T03:49:42.582Z,7.90
2018-04-17T03:52:10.906Z,8.10
2018-04-17T03:54:39.210Z,8.10
2018-04-17T03:57:07.502Z,8.00
2018-04-17T03:59:35.828Z,8.10
2018-04-17T04:02:04.190Z,8.00
2018-04-17T04:04:32.584Z,7.90
2018-04-17T04:07:00.876Z,8.00
2018-04-17T04:09:29.356Z,8.00
2018-04-17T04:11:57.645Z,8.00
2018-04-17T04:14:25.942Z,7.90
2018-04-17T04:17:06.105Z,7.90
2018-04-17T04:19:46.417Z,7.90
2018-04-17T04:22:26.489Z,7.90
2018-04-17T04:25:06.794Z,7.80
2018-04-17T04:27:35.085Z,7.70
2018-04-17T04:30:03.397Z,7.80
2018-04-17T04:32:31.720Z,8.10
2018-04-17T04:35:00.009Z,8.30
2018-04-17T04:37:28.334Z,8.20
2018-04-17T04:39:56.644Z,7.90
2018-04-17T04:42:24.978Z,7.80
2018-04-17T04:44:53.336Z,7.90
2018-04-17T04:47:21.633Z,8.10
2018-04-17T04:49:50.025Z,7.90
2018-04-17T04:52:18.363Z,7.90
2018-04-17T04:54:46.693Z,7.80
2018-04-17T04:57:14.984Z,8.00
2018-04-17T04:59:43.302Z,8.00
2018-04-17T05:02:12.397Z,8.50
2018-04-17T05:04:41.461Z,8.40
2018-04-17T05:07:09.745Z,8.40
2018-04-17T05:09:38.085Z,8.50
2018-04-17T05:12:07.273Z,8.60
2018-04-17T05:14:36.328Z,8.70
2018-04-17T05:17:04.661Z,8.70
2018-04-17T05:19:32.981Z,8.90
2018-04-17T05:22:02.073Z,9.30
2018-04-17T05:24:30.396Z,9.20
2018-04-17T05:26:59.444Z,9.60
2018-04-17T05:29:27.773Z,9.50
2018-04-17T05:31:56.844Z,10.00
2018-04-17T05:34:25.223Z,10.00
2018-04-17T05:36:53.495Z,10.10
2018-04-17T05:39:21.797Z,10.20
2018-04-17T05:41:50.127Z,10.40
2018-04-17T05:44:18.453Z,10.40
2018-04-17T05:46:46.787Z,10.50
2018-04-17T05:49:15.081Z,10.70
2018-04-17T05:51:43.425Z,10.80
2018-04-17T05:54:11.721Z,10.80
2018-04-17T05:56:40.057Z,10.90
2018-04-17T05:59:08.455Z,11.10
2018-04-17T06:01:36.789Z,11.20
2018-04-17T06:04:05.091Z,11.20
2018-04-17T06:06:33.435Z,11.40
2018-04-17T06:09:02.488Z,11.80
2018-04-17T06:11:30.838Z,11.80
2018-04-17T06:14:00.136Z,12.10
2018-04-17T06:16:28.441Z,12.10
2018-04-17T06:18:57.516Z,12.40
2018-04-17T06:21:25.863Z,12.40
2018-04-17T06:23:54.227Z,12.30
2018-04-17T06:26:22.594Z,12.30
2018-04-17T06:28:50.903Z,12.30
2018-04-17T06:31:19.966Z,12.60
2018-04-17T06:33:48.304Z,12.60
2018-04-17T06:36:16.596Z,12.70
2018-04-17T06:38:45.701Z,13.00
2018-04-17T06:41:13.988Z,12.90
2018-04-17T06:43:42.321Z,13.20
2018-04-17T06:46:10.642Z,13.40
2018-04-17T06:48:38.988Z,13.60
2018-04-17T06:51:07.285Z,13.70
2018-04-17T06:53:35.590Z,13.50
2018-04-17T06:56:03.933Z,13.40
2018-04-17T06:58:32.993Z,13.60
2018-04-17T07:01:01.330Z,13.60
2018-04-17T07:03:30.389Z,13.30
2018-04-17T07:05:58.713Z,13.30
2018-04-17T07:08:27.004Z,13.40
2018-04-17T07:10:55.341Z,13.80
2018-04-17T07:13:23.682Z,13.50
2018-04-17T07:15:52.073Z,13.30
2018-04-17T07:18:20.382Z,13.30
2018-04-17T07:20:48.749Z,13.20
2018-04-17T07:23:17.090Z,13.50
2018-04-17T07:25:45.390Z,13.80
2018-04-17T07:28:13.726Z,14.00
2018-04-17T07:30:43.565Z,14.00
2018-04-17T07:33:12.626Z,14.00
2018-04-17T07:35:40.958Z,14.00
2018-04-17T07:38:10.058Z,14.60
2018-04-17T07:40:38.410Z,14.50
2018-04-17T07:43:06.701Z,14.40
2018-04-17T07:45:35.025Z,14.60
2018-04-17T07:48:16.308Z,14.60
2018-04-17T07:50:44.610Z,14.90
2018-04-17T07:53:14.444Z,14.40
2018-04-17T07:55:43.541Z,14.30
2018-04-17T07:58:11.824Z,14.30
2018-04-17T08:00:40.225Z,14.30
2018-04-17T08:03:08.560Z,14.60
2018-04-17T08:05:36.850Z,15.00
2018-04-17T08:08:05.141Z,14.80
2018-04-17T08:10:33.511Z,14.70
2018-04-17T08:13:01.817Z,14.50
2018-04-17T08:15:30.142Z,14.50
2018-04-17T08:17:58.469Z,14.80
2018-04-17T08:20:27.561Z,15.60
2018-04-17T08:22:56.626Z,15.60
2018-04-17T08:25:24.953Z,15.60
2018-04-17T08:27:53.276Z,15.50
2018-04-17T08:30:22.364Z,15.60
2018-04-17T08:32:51.436Z,15.80
2018-04-17T08:35:19.759Z,15.80
2018-04-17T08:37:48.137Z,15.90
2018-04-17T08:40:18.237Z,16.30
2018-04-17T08:42:46.595Z,16.20
2018-04-17T08:45:15.641Z,16.00
2018-04-17T08:47:43.933Z,16.00
2018-04-17T08:50:12.251Z,16.20
2018-04-17T08:52:40.549Z,16.10
2018-04-17T08:55:09.741Z,16.20
2018-04-17T08:57:39.547Z,16.40
2018-04-17T09:00:08.685Z,16.40
2018-04-17T09:02:36.976Z,16.70
2018-04-17T09:05:05.302Z,16.60
2018-04-17T09:07:33.589Z,16.70
2018-04-17T09:10:01.919Z,16.80
2018-04-17T09:12:31.733Z,17.30
2018-04-17T09:15:00.253Z,17.30
2018-04-17T09:17:28.538Z,17.50
2018-04-17T09:19:56.833Z,17.50
2018-04-17T09:22:25.227Z,17.40
2018-04-17T09:24:53.618Z,17.10
2018-04-17T09:27:21.962Z,17.30
2018-04-17T09:29:50.293Z,17.40
2018-04-17T09:32:18.585Z,17.50
2018-04-17T09:34:48.410Z,17.50
2018-04-17T09:37:16.689Z,17.50
2018-04-17T09:39:45.001Z,17.40
2018-04-17T09:42:13.383Z,17.50
2018-04-17T09:44:41.661Z,17.50
2018-04-17T09:47:09.945Z,17.60
2018-04-17T09:49:38.349Z,17.50
2018-04-17T09:52:06.629Z,17.50
2018-04-17T09:54:35.021Z,17.60
2018-04-17T09:57:03.305Z,17.60
2018-04-17T09:59:31.806Z,17.80
2018-04-17T10:02:00.093Z,17.90
2018-04-17T10:04:28.381Z,18.10
2018-04-17T10:06:56.709Z,18.50
2018-04-17T10:09:25.753Z,18.30
2018-04-17T10:11:54.081Z,18.20
2018-04-17T10:14:23.904Z,18.00
2018-04-17T10:16:52.184Z,18.00
2018-04-17T10:19:20.498Z,18.10
2018-04-17T10:21:49.784Z,18.50
2018-04-17T10:24:18.071Z,18.50
2018-04-17T10:26:46.357Z,18.80
2018-04-17T10:29:14.680Z,18.70
2018-04-17T10:31:43.732Z,18.00
2018-04-17T10:34:12.068Z,17.90
2018-04-17T10:36:40.353Z,17.80
2018-04-17T10:39:08.676Z,18.00
2018-04-17T10:41:37.832Z,18.60
2018-04-17T10:44:06.147Z,18.60
2018-04-17T10:46:34.475Z,18.60
2018-04-17T10:49:02.754Z,18.90
2018-04-17T10:51:31.105Z,19.00
2018-04-17T10:53:59.426Z,19.00
2018-04-17T10:56:28.477Z,18.80
2018-04-17T10:58:56.792Z,18.80
2018-04-17T11:01:26.581Z,18.40
2018-04-17T11:03:54.896Z,18.40
2018-04-17T11:06:23.206Z,18.10
2018-04-17T11:08:51.538Z,18.50
2018-04-17T11:11:19.816Z,18.60
2018-04-17T11:13:48.129Z,18.80
2018-04-17T11:16:16.605Z,18.50
2018-04-17T11:18:44.882Z,18.30
2018-04-17T11:21:13.242Z,18.20
2018-04-17T11:23:41.559Z,18.10
2018-04-17T11:26:10.604Z,18.30
2018-04-17T11:28:38.926Z,18.30
2018-04-17T11:31:07.205Z,18.40
2018-04-17T11:33:37.000Z,18.30
2018-04-17T11:36:05.333Z,18.30
2018-04-17T11:38:33.613Z,18.10
2018-04-17T11:41:01.937Z,18.10
2018-04-17T11:43:30.985Z,17.80
2018-04-17T11:45:59.309Z,17.80
2018-04-17T11:48:27.602Z,17.80
2018-04-17T11:50:55.886Z,18.20
2018-04-17T11:53:24.206Z,18.10
2018-04-17T11:55:53.263Z,17.80
2018-04-17T11:58:21.590Z,17.80
2018-04-17T12:00:50.646Z,17.70
2018-04-17T12:03:18.979Z,17.60
2018-04-17T12:05:48.070Z,17.90
2018-04-17T12:08:16.565Z,17.80
2018-04-17T12:10:46.360Z,18.40
2018-04-17T12:13:14.650Z,18.40
2018-04-17T12:15:42.974Z,18.50
2018-04-17T12:18:11.313Z,18.50
2018-04-17T12:20:39.650Z,18.80
2018-04-17T12:23:07.929Z,18.60
2018-04-17T12:25:36.320Z,18.50
2018-04-17T12:28:04.602Z,18.50
2018-04-17T12:30:32.912Z,18.60
2018-04-17T12:33:01.289Z,18.50
2018-04-17T12:35:29.573Z,18.60
2018-04-17T12:37:57.977Z,19.10
2018-04-17T12:40:26.288Z,19.00
2018-04-17T12:42:55.345Z,18.80
2018-04-17T12:45:23.673Z,18.80
2018-04-17T12:47:51.963Z,18.40
2018-04-17T12:50:21.052Z,18.80
2018-04-17T12:52:49.370Z,18.80
2018-04-17T12:55:18.448Z,19.00
2018-04-17T12:57:46.786Z,19.00
2018-04-17T13:00:15.130Z,19.00
2018-04-17T13:02:43.449Z,19.00
2018-04-17T13:05:12.497Z,18.40
2018-04-17T13:07:40.821Z,18.40
2018-04-17T13:10:10.044Z,18.60
2018-04-17T13:12:38.385Z,18.80
2018-04-17T13:15:06.674Z,19.20
2018-04-17T13:17:34.999Z,19.40
2018-04-17T13:20:03.324Z,19.30
2018-04-17T13:22:32.505Z,19.00
2018-04-17T13:25:00.825Z,18.90
2018-04-17T13:27:29.873Z,18.90
2018-04-17T13:29:59.109Z,18.80
2018-04-17T13:32:27.506Z,18.60
2018-04-17T13:34:57.294Z,18.90
2018-04-17T13:37:25.615Z,18.90
2018-04-17T13:39:53.910Z,18.80
2018-04-17T13:42:23.770Z,19.00
2018-04-17T13:44:52.038Z,19.00
2018-04-17T13:47:20.356Z,19.10
2018-04-17T13:49:48.670Z,19.10
2018-04-17T13:52:17.085Z,18.80
2018-04-17T13:54:45.366Z,18.80
2018-04-17T13:57:13.764Z,19.00
2018-04-17T13:59:42.316Z,19.30
2018-04-17T14:02:10.648Z,19.60
2018-04-17T14:04:39.035Z,19.70
2018-04-17T14:07:07.353Z,19.80
2018-04-17T14:09:36.452Z,19.60
2018-04-17T14:12:04.932Z,19.50
2018-04-17T14:14:33.214Z,19.60
2018-04-17T14:17:01.498Z,19.40
2018-04-17T14:19:29.814Z,19.20
2018-04-17T14:21:58.129Z,19.20
2018-04-17T14:24:27.196Z,19.30
2018-04-17T14:26:55.518Z,19.30
2018-04-17T14:29:24.577Z,19.30
2018-04-17T14:31:52.992Z,19.30
2018-04-17T14:34:21.310Z,19.30
2018-04-17T14:36:50.361Z,19.40
2018-04-17T14:39:18.683Z,19.30
2018-04-17T14:41:46.993Z,19.30
2018-04-17T14:44:16.068Z,19.20
2018-04-17T14:46:44.381Z,19.20
2018-04-17T14:49:12.669Z,19.00
2018-04-17T14:51:41.000Z,19.20
2018-04-17T14:54:09.281Z,19.10
2018-04-17T14:56:37.781Z,19.20
2018-04-17T14:59:06.831Z,19.20
2018-04-17T15:01:35.107Z,19.20
2018-04-17T15:04:03.430Z,19.00
2018-04-17T15:06:31.709Z,18.80
2018-04-17T15:09:00.022Z,18.80
2018-04-17T15:11:29.077Z,19.00
2018-04-17T15:13:57.484Z,19.00
2018-04-17T15:16:25.765Z,18.90
2018-04-17T15:18:54.164Z,19.10
2018-04-17T15:21:22.445Z,19.60
2018-04-17T15:23:50.854Z,19.80
2018-04-17T15:26:19.137Z,20.00
2018-04-17T15:28:47.635Z,19.90
2018-04-17T15:31:16.017Z,20.70
2018-04-17T15:33:44.305Z,21.30
2018-04-17T15:36:12.617Z,21.60
2018-04-17T15:38:40.901Z,22.50
2018-04-17T15:41:09.381Z,23.10
2018-04-17T15:43:37.678Z,23.30
2018-04-17T15:46:05.957Z,22.70
2018-04-17T15:48:34.456Z,22.70
2018-04-17T15:51:02.749Z,23.40
2018-04-17T15:53:31.031Z,23.20
2018-04-17T15:55:59.336Z,22.60
2018-04-17T15:58:27.815Z,22.20
2018-04-17T16:00:56.204Z,22.60
2018-04-17T16:03:24.544Z,22.80
2018-04-17T16:05:52.894Z,23.30
2018-04-17T16:08:21.390Z,22.80
2018-04-17T16:10:49.678Z,22.40
2018-04-17T16:13:18.060Z,22.60
2018-04-17T16:15:46.337Z,23.20
2018-04-17T16:18:14.829Z,23.10
2018-04-17T16:20:43.105Z,22.40
2018-04-17T16:23:11.424Z,22.80
2018-04-17T16:25:39.732Z,23.00
2018-04-17T16:28:08.025Z,23.80
2018-04-17T16:30:37.121Z,24.10
2018-04-17T16:33:05.443Z,24.10
2018-04-17T16:35:33.780Z,25.10
2018-04-17T16:38:02.056Z,25.60
2018-04-17T16:40:30.381Z,23.90
2018-04-17T16:42:58.767Z,22.50
2018-04-17T16:45:27.054Z,21.60
2018-04-17T16:47:55.441Z,20.90
2018-04-17T16:50:23.760Z,20.30
2018-04-17T16:52:52.848Z,20.10
2018-04-17T16:55:21.156Z,20.10
2018-04-17T16:57:50.209Z,19.70
2018-04-17T17:00:18.536Z,19.70
2018-04-17T17:02:46.813Z,19.80
2018-04-17T17:05:15.101Z,19.70
2018-04-17T17:07:43.420Z,19.60
2018-04-17T17:10:12.477Z,19.10
2018-04-17T17:12:40.808Z,19.00
2018-04-17T17:15:09.543Z,18.80
2018-04-17T17:17:37.832Z,18.70
2018-04-17T17:20:06.151Z,18.50
2018-04-17T17:22:34.429Z,18.20
2018-04-17T17:25:02.844Z,18.00
2018-04-17T17:27:31.148Z,17.90
2018-04-17T17:29:59.529Z,18.00
2018-04-17T17:32:28.072Z,18.00
2018-04-17T17:34:56.324Z,18.00
2018-04-17T17:37:24.710Z,17.80
2018-04-17T17:39:54.532Z,17.60
2018-04-17T17:42:22.920Z,17.60
2018-04-17T17:44:52.040Z,17.40
2018-04-17T17:47:21.990Z,17.40
2018-04-17T17:49:51.055Z,17.20
2018-04-17T17:52:19.385Z,17.20
2018-04-17T17:54:48.442Z,16.90
2018-04-17T17:57:16.741Z,16.90
2018-04-17T17:59:45.061Z,16.80
2018-04-17T18:02:13.340Z,16.70
2018-04-17T18:04:41.716Z,16.60
2018-04-17T18:07:10.045Z,16.40
2018-04-17T18:09:39.091Z,16.10
2018-04-17T18:12:07.377Z,16.10
2018-04-17T18:14:35.904Z,15.90
2018-04-17T18:17:04.184Z,15.80
2018-04-17T18:19:32.506Z,15.60
2018-04-17T18:22:01.082Z,15.60
2018-04-17T18:24:30.870Z,15.40
2018-04-17T18:26:59.161Z,15.30
2018-04-17T18:29:27.493Z,15.30
2018-04-17T18:31:55.813Z,15.30
2018-04-17T18:34:24.900Z,15.10
2018-04-17T18:36:53.985Z,14.90
2018-04-17T18:39:22.373Z,14.80
2018-04-17T18:41:50.786Z,14.70
2018-04-17T18:44:19.097Z,14.50
2018-04-17T18:46:47.417Z,14.30
2018-04-17T18:49:15.733Z,14.20
2018-04-17T18:51:44.233Z,14.20
2018-04-17T18:54:12.526Z,14.20
2018-04-17T18:56:40.968Z,14.00
2018-04-17T18:59:09.285Z,13.90
2018-04-17T19:01:37.572Z,13.80
2018-04-17T19:04:05.981Z,13.80
2018-04-17T19:06:34.327Z,13.60
2018-04-17T19:09:02.610Z,13.50
2018-04-17T19:11:30.929Z,13.50
2018-04-17T19:13:59.440Z,13.50
2018-04-17T19:16:27.737Z,13.40
2018-04-17T19:18:56.129Z,13.30
2018-04-17T19:21:25.336Z,13.10
2018-04-17T19:23:53.631Z,13.10
2018-04-17T19:26:21.921Z,13.00
2018-04-17T19:28:50.259Z,12.90
2018-04-17T19:31:18.578Z,12.70
2018-04-17T19:33:46.909Z,12.70
2018-04-17T19:36:15.984Z,12.70
2018-04-17T19:41:18.829Z,12.50
2018-04-17T19:43:48.657Z,12.40
2018-04-17T19:46:17.958Z,12.30
2018-04-17T19:48:46.281Z,12.40
2018-04-17T19:51:14.564Z,12.50
2018-04-17T19:53:43.628Z,12.20
2018-04-17T19:56:11.953Z,12.20
2018-04-17T19:58:41.045Z,12.00
2018-04-17T20:01:09.329Z,12.00
2018-04-17T20:03:37.656Z,11.90
2018-04-17T20:06:05.996Z,11.80
2018-04-17T20:08:34.316Z,11.70
2018-04-17T20:11:03.372Z,11.60
2018-04-17T20:13:31.786Z,11.60
2018-04-17T20:16:00.061Z,11.50
2018-04-17T20:18:28.372Z,11.40
2018-04-17T20:20:58.204Z,11.40
2018-04-17T20:23:26.492Z,11.40
2018-04-17T20:25:54.829Z,11.40
2018-04-17T20:28:23.176Z,11.30
2018-04-17T20:30:51.465Z,11.30
2018-04-17T20:33:19.785Z,11.30
2018-04-17T20:35:48.075Z,11.30
2018-04-17T20:38:16.625Z,11.20
2018-04-17T20:40:44.928Z,11.20
2018-04-17T20:43:13.213Z,11.20
2018-04-17T20:45:41.541Z,11.20
2018-04-17T20:48:09.856Z,11.20
2018-04-17T20:50:38.182Z,11.10
2018-04-17T20:53:07.281Z,11.10
2018-04-17T20:55:35.616Z,11.00
2018-04-17T20:58:03.940Z,11.10
2018-04-17T21:00:32.273Z,11.10
2018-04-17T21:03:01.361Z,10.90
2018-04-17T21:05:29.648Z,10.90
2018-04-17T21:07:57.940Z,10.80
2018-04-17T21:10:26.252Z,10.70
2018-04-17T21:12:55.330Z,10.40
2018-04-17T21:15:23.649Z,10.40
2018-04-17T21:17:51.943Z,10.40
2018-04-17T21:20:21.034Z,10.40
2018-04-17T21:22:49.357Z,10.40
2018-04-17T21:25:17.676Z,10.40
2018-04-17T21:27:46.002Z,10.60
2018-04-17T21:30:14.289Z,10.50
2018-04-17T21:32:42.683Z,10.50
2018-04-17T21:35:11.002Z,10.40
2018-04-17T21:37:40.049Z,10.40
2018-04-17T21:40:08.373Z,10.40
2018-04-17T21:42:36.702Z,10.30
2018-04-17T21:45:05.050Z,10.30
2018-04-17T21:47:34.840Z,10.20
2018-04-17T21:50:03.132Z,10.20
2018-04-17T21:52:31.459Z,10.10
2018-04-17T21:54:59.786Z,10.10
2018-04-17T21:57:28.086Z,10.10
2018-04-17T21:59:56.420Z,10.00
2018-04-17T22:02:24.693Z,9.90
2018-04-17T22:04:53.009Z,9.80
2018-04-17T22:07:21.389Z,9.80
2018-04-17T22:09:49.670Z,9.90
2018-04-17T22:12:18.900Z,10.10
2018-04-17T22:14:47.221Z,10.00
2018-04-17T22:17:15.561Z,10.20
2018-04-17T22:19:45.397Z,10.00
2018-04-17T22:22:13.684Z,10.00
2018-04-17T22:24:42.009Z,9.90
2018-04-17T22:27:10.297Z,9.90
2018-04-17T22:29:38.612Z,9.80
2018-04-17T22:32:06.894Z,9.80
2018-04-17T22:34:35.204Z,9.80
2018-04-17T22:37:03.493Z,9.70
2018-04-17T22:39:31.807Z,9.70
2018-04-17T22:42:00.098Z,9.40
2018-04-17T22:44:28.433Z,9.40
2018-04-17T22:46:56.720Z,9.30
2018-04-17T22:49:25.042Z,9.20
2018-04-17T22:51:53.324Z,9.20
2018-04-17T22:54:21.754Z,9.20
2018-04-17T22:56:50.037Z,9.20
2018-04-17T22:59:18.317Z,9.20
2018-04-17T23:01:46.821Z,9.20
2018-04-17T23:04:15.106Z,9.20
2018-04-17T23:06:43.393Z,9.30
2018-04-17T23:09:11.721Z,9.30
2018-04-17T23:11:40.070Z,9.20
2018-04-17T23:14:08.381Z,9.10
2018-04-17T23:16:36.667Z,9.00
2018-04-17T23:19:04.989Z,9.00
2018-04-17T23:21:33.273Z,8.90
2018-04-17T23:24:01.558Z,9.00
2018-04-17T23:26:30.654Z,8.80
2018-04-17T23:28:59.706Z,8.80
2018-04-17T23:31:28.029Z,8.70
2018-04-17T23:33:56.302Z,8.70
2018-04-17T23:36:24.628Z,8.70
2018-04-17T23:38:53.685Z,8.60
2018-04-17T23:41:22.005Z,8.60
2018-04-17T23:43:50.337Z,8.60
2018-04-17T23:46:18.621Z,8.40
2018-04-17T23:48:46.897Z,8.40
2018-04-17T23:51:15.977Z,8.40
2018-04-17T23:53:44.361Z,8.40
2018-04-17T23:56:12.762Z,8.30
2018-04-17T23:58:41.049Z,8.30
